Time;durP1;ratioP1;P1;durP2;ratioP2;P2;SDS_P1;SDS_P2;PMS_P1;PMS_P2;Temp;Humidity;BMP_temperature;BMP_pressure;BME280_temperature;BME280_humidity;BME280_pressure;Samples;Min_cycle;Max_cycle;Signal;HPM_P1;HPM_P2
2020/12/17 00:01:30;;;;;;;38.02;14.70;;;;;;;3.19;79.39;100055.21;1688809;84;21726;-82
2020/12/17 00:03:58;;;;;;;40.48;15.32;;;;;;;3.18;79.94;100062.88;1688010;84;21301;-82
2020/12/17 00:06:27;;;;;;;40.43;14.73;;;;;;;3.25;79.58;100058.75;1688083;83;21182;-82
2020/12/17 00:08:54;;;;;;;37.40;14.68;;;;;;;3.11;80.87;100062.33;1681204;84;21388;-82
2020/12/17 00:11:22;;;;;;;44.90;16.55;;;;;;;3.07;81.20;100063.96;1675070;84;21322;-83
2020/12/17 00:13:49;;;;;;;42.48;15.63;;;;;;;3.18;80.39;100064.16;1694691;84;21313;-84
2020/12/17 00:16:19;;;;;;;46.28;16.02;;;;;;;3.20;80.77;100065.06;1685567;84;21178;-83
2020/12/17 00:18:46;;;;;;;44.25;17.20;;;;;;;3.23;80.70;100061.71;1688538;83;21342;-83
2020/12/17 00:21:21;;;;;;;45.48;18.67;;;;;;;3.26;80.68;100057.90;1680333;84;21333;-82
2020/12/17 00:23:49;;;;;;;45.75;17.80;;;;;;;3.23;80.18;100057.43;1684892;83;21145;-83
2020/12/17 00:26:17;;;;;;;43.58;16.52;;;;;;;3.26;79.92;100056.61;1709381;82;21325;-83
2020/12/17 00:28:45;;;;;;;42.83;17.20;;;;;;;3.22;80.04;100059.96;1688047;84;21329;-83
2020/12/17 00:31:16;;;;;;;47.65;18.30;;;;;;;3.18;80.35;100063.77;1689130;84;21159;-83
2020/12/17 00:33:45;;;;;;;42.67;17.82;;;;;;;3.17;80.02;100066.30;1687852;84;21404;-81
2020/12/17 00:36:25;;;;;;;41.58;18.02;;;;;;;3.15;80.32;100061.55;1685234;84;21317;-81
2020/12/17 00:38:53;;;;;;;43.35;17.02;;;;;;;3.10;80.82;100058.01;1681031;84;21141;-83
2020/12/17 00:41:21;;;;;;;42.73;16.85;;;;;;;3.08;80.75;100051.97;1688115;83;21271;-83
2020/12/17 00:43:48;;;;;;;38.20;14.10;;;;;;;3.04;81.03;100056.59;1700547;83;21274;-83
2020/12/17 00:46:16;;;;;;;43.25;14.20;;;;;;;3.05;79.71;100058.35;1687011;83;21191;-83
2020/12/17 00:48:44;;;;;;;38.42;14.03;;;;;;;2.97;80.60;100057.76;1698679;84;21277;-84
2020/12/17 00:51:11;;;;;;;34.27;13.90;;;;;;;2.98;80.01;100054.37;1694500;83;21336;-83
2020/12/17 00:53:38;;;;;;;40.45;13.72;;;;;;;2.99;80.38;100053.52;1698549;84;21361;-82
2020/12/17 00:56:06;;;;;;;37.13;14.38;;;;;;;3.03;80.21;100051.89;1703376;83;21300;-83
2020/12/17 00:58:33;;;;;;;38.40;14.28;;;;;;;3.06;80.52;100057.07;1692096;83;21277;-83
2020/12/17 01:01:06;;;;;;;38.75;14.07;;;;;;;3.11;80.92;100054.62;1694982;84;21329;-83
2020/12/17 01:03:35;;;;;;;34.92;13.15;;;;;;;3.13;80.99;100052.52;1685439;84;21265;-83
2020/12/17 01:06:09;;;;;;;39.15;15.08;;;;;;;3.17;80.90;100049.59;1700519;84;21265;-82
2020/12/17 01:08:36;;;;;;;;;;;;;;;3.22;80.77;100051.83;1698580;84;21285;-83
2020/12/17 01:11:03;;;;;;;39.95;14.93;;;;;;;3.29;80.84;100060.12;1690052;84;20246;-83
2020/12/17 01:13:31;;;;;;;43.15;16.30;;;;;;;3.31;80.86;100059.73;1689638;84;21302;-82
2020/12/17 01:15:59;;;;;;;40.33;16.00;;;;;;;3.27;80.82;100055.37;1693093;83;21210;-82
2020/12/17 01:18:26;;;;;;;37.75;16.00;;;;;;;3.30;80.80;100059.30;1703884;84;21313;-82
2020/12/17 01:20:54;;;;;;;38.00;15.00;;;;;;;3.31;80.27;100062.30;1690219;84;21237;-82
2020/12/17 01:23:21;;;;;;;41.88;16.20;;;;;;;3.29;80.64;100057.55;1691132;83;21320;-81
2020/12/17 01:25:48;;;;;;;40.70;16.00;;;;;;;3.29;80.53;100051.55;1696421;84;21283;-81
2020/12/17 01:28:16;;;;;;;39.58;15.53;;;;;;;3.29;80.83;100050.27;1693813;84;21274;-82
2020/12/17 01:30:43;;;;;;;39.88;15.83;;;;;;;3.28;79.92;100066.11;1688238;84;21296;-81
2020/12/17 01:33:10;;;;;;;37.42;14.90;;;;;;;3.21;80.94;100064.67;1690078;84;21320;-81
2020/12/17 01:35:37;;;;;;;34.75;13.68;;;;;;;3.19;80.50;100061.63;1695469;83;21305;-82
2020/12/17 01:38:05;;;;;;;41.23;16.73;;;;;;;3.16;80.84;100058.13;1703378;83;21330;-82
2020/12/17 01:40:32;;;;;;;43.73;16.77;;;;;;;3.19;79.92;100060.77;1693151;83;21298;-81
2020/12/17 01:43:00;;;;;;;41.68;16.02;;;;;;;3.14;80.55;100059.80;1694789;83;21288;-82
2020/12/17 01:45:27;;;;;;;35.58;13.22;;;;;;;3.12;80.52;100056.34;1694579;84;21290;-82
2020/12/17 01:47:56;;;;;;;37.23;13.85;;;;;;;3.09;81.22;100061.43;1694993;84;21308;-82
2020/12/17 01:50:23;;;;;;;37.17;14.75;;;;;;;3.12;80.95;100071.36;1687159;84;21297;-81
2020/12/17 01:52:53;;;;;;;38.70;13.10;;;;;;;3.14;80.56;100062.38;1695996;83;21276;-82
2020/12/17 01:55:20;;;;;;;37.00;14.18;;;;;;;3.14;80.95;100064.94;1697581;83;21280;-80
2020/12/17 01:57:48;;;;;;;38.55;13.93;;;;;;;3.16;80.84;100054.28;1694623;83;21301;-81
2020/12/17 02:00:19;;;;;;;39.45;15.32;;;;;;;3.16;81.23;100073.16;1694834;84;21265;-81
2020/12/17 02:02:48;;;;;;;37.33;14.23;;;;;;;3.22;81.03;100063.39;1692603;83;21166;-81
2020/12/17 02:05:15;;;;;;;32.70;11.85;;;;;;;3.23;81.01;100060.42;1693834;84;21350;-81
2020/12/17 02:07:43;;;;;;;38.23;15.25;;;;;;;3.26;80.86;100060.47;1688713;84;21144;-81
2020/12/17 02:10:11;;;;;;;39.30;14.87;;;;;;;3.30;80.84;100059.69;1695628;83;21226;-82
2020/12/17 02:12:47;;;;;;;35.10;14.83;;;;;;;3.30;80.64;100055.84;1686119;84;21324;-81
2020/12/17 02:15:17;;;;;;;34.90;14.03;;;;;;;3.31;80.55;100054.59;1693667;83;21237;-82
2020/12/17 02:17:46;;;;;;;37.65;14.18;;;;;;;3.29;80.26;100047.27;1691333;83;21320;-81
2020/12/17 02:20:14;;;;;;;38.00;14.60;;;;;;;3.26;80.17;100056.19;1693961;84;21277;-82
2020/12/17 02:22:42;;;;;;;32.25;14.30;;;;;;;3.24;80.09;100067.28;1694237;84;21305;-81
2020/12/17 02:25:14;;;;;;;34.33;13.62;;;;;;;3.22;80.37;100054.82;1694169;84;21159;-81
2020/12/17 02:27:42;;;;;;;32.73;13.50;;;;;;;3.21;79.78;100064.24;1698604;84;21154;-81
2020/12/17 02:30:12;;;;;;;37.23;15.15;;;;;;;3.15;79.58;100068.83;1692636;84;21233;-81
2020/12/17 02:32:40;;;;;;;35.92;12.33;;;;;;;3.09;79.99;100064.86;1691818;83;21376;-82
2020/12/17 02:35:09;;;;;;;31.93;11.28;;;;;;;3.06;80.22;100074.20;1693965;84;21195;-81
2020/12/17 02:37:37;;;;;;;32.73;10.98;;;;;;;3.06;80.35;100078.05;1694848;84;21352;-81
2020/12/17 02:40:05;;;;;;;34.70;12.68;;;;;;;3.06;80.38;100071.20;1693324;83;21345;-82
2020/12/17 02:42:32;;;;;;;28.50;11.43;;;;;;;3.08;80.24;100066.96;1688720;83;21285;-81
2020/12/17 02:45:00;;;;;;;37.28;13.32;;;;;;;3.08;80.65;100069.53;1694680;83;22668;-81
2020/12/17 02:47:27;;;;;;;36.40;12.78;;;;;;;3.13;80.86;100070.51;1696548;83;21276;-81
2020/12/17 02:49:54;;;;;;;34.38;13.78;;;;;;;3.19;81.00;100075.77;1697040;84;21268;-82
2020/12/17 02:52:22;;;;;;;37.42;13.98;;;;;;;3.26;81.15;100086.17;1697519;84;21305;-82
2020/12/17 02:54:49;;;;;;;38.23;13.95;;;;;;;3.31;80.95;100075.16;1699099;84;21278;-82
2020/12/17 02:57:17;;;;;;;42.13;15.10;;;;;;;3.38;80.96;100084.73;1693101;84;21333;-82
2020/12/17 02:59:44;;;;;;;44.50;16.87;;;;;;;3.44;80.88;100072.81;1693976;84;21308;-81
2020/12/17 03:02:11;;;;;;;36.48;15.18;;;;;;;3.48;80.89;100061.75;1695957;83;21296;-82
2020/12/17 03:04:38;;;;;;;39.42;15.88;;;;;;;3.51;80.76;100061.83;1691784;84;21333;-82
2020/12/17 03:07:06;;;;;;;38.25;15.60;;;;;;;3.54;80.51;100070.47;1695525;84;21742;-79
2020/12/17 03:09:33;;;;;;;43.75;16.67;;;;;;;3.54;80.51;100068.30;1697987;83;21214;-81
2020/12/17 03:12:01;;;;;;;46.37;15.70;;;;;;;3.55;80.32;100075.19;1694458;83;21202;-81
2020/12/17 03:14:28;;;;;;;43.75;16.37;;;;;;;3.53;80.33;100071.72;1693915;83;21316;-80
2020/12/17 03:16:56;;;;;;;39.70;16.15;;;;;;;3.52;80.31;100067.40;1691420;83;21308;-83
2020/12/17 03:19:23;;;;;;;42.27;16.40;;;;;;;3.49;80.28;100062.22;1691547;83;21203;-82
2020/12/17 03:21:51;;;;;;;44.53;17.48;;;;;;;3.47;80.58;100067.75;1693099;84;21174;-81
2020/12/17 03:24:19;;;;;;;43.30;17.48;;;;;;;3.45;80.37;100066.42;1689623;84;21191;-81
2020/12/17 03:26:46;;;;;;;42.43;17.30;;;;;;;3.44;80.45;100059.96;1696622;83;21150;-82
2020/12/17 03:29:14;;;;;;;37.08;14.03;;;;;;;3.40;80.60;100064.17;1694032;84;21265;-82
2020/12/17 03:31:42;;;;;;;46.33;17.70;;;;;;;3.36;80.62;100066.23;1693598;84;21313;-81
2020/12/17 03:34:09;;;;;;;50.10;18.62;;;;;;;3.33;80.61;100067.05;1700481;84;21309;-82
2020/12/17 03:36:36;;;;;;;43.50;15.58;;;;;;;3.33;80.87;100067.05;1699313;84;21317;-82
2020/12/17 03:39:04;;;;;;;49.63;17.00;;;;;;;3.31;80.75;100066.58;1682000;84;21308;-81
2020/12/17 03:41:31;;;;;;;49.67;16.45;;;;;;;3.29;80.56;100071.69;1691051;83;21373;-82
2020/12/17 03:43:59;;;;;;;44.42;15.35;;;;;;;3.30;80.71;100070.86;1685743;83;21326;-81
2020/12/17 03:46:26;;;;;;;46.30;16.23;;;;;;;3.29;81.06;100080.68;1684496;84;21331;-82
2020/12/17 03:48:53;;;;;;;40.33;14.73;;;;;;;3.30;80.83;100081.14;1686229;84;21314;-80
2020/12/17 03:51:21;;;;;;;45.30;15.88;;;;;;;3.31;80.86;100079.00;1685443;83;21294;-82
2020/12/17 03:53:48;;;;;;;39.10;15.03;;;;;;;3.36;80.82;100086.41;1688815;83;21220;-82
2020/12/17 03:56:16;;;;;;;46.00;15.75;;;;;;;3.40;80.87;100082.16;1690789;83;21298;-82
2020/12/17 03:58:43;;;;;;;34.98;13.03;;;;;;;3.46;80.93;100075.89;1695792;84;21278;-82
2020/12/17 04:01:10;;;;;;;44.85;18.12;;;;;;;3.53;81.04;100064.86;1688228;84;21351;-84
2020/12/17 04:03:38;;;;;;;47.27;16.40;;;;;;;3.50;80.70;100066.11;1682377;84;21318;-81
2020/12/17 04:06:05;;;;;;;44.33;17.92;;;;;;;3.49;80.57;100068.22;1680370;84;21223;-81
2020/12/17 04:08:32;;;;;;;45.73;17.95;;;;;;;3.51;80.68;100066.54;1683417;84;21332;-81
2020/12/17 04:10:59;;;;;;;48.95;19.00;;;;;;;3.53;80.61;100074.29;1692961;83;21833;-81
2020/12/17 04:13:27;;;;;;;43.20;16.97;;;;;;;3.52;80.45;100078.97;1690701;83;21766;-81
2020/12/17 04:15:59;;;;;;;47.13;17.80;;;;;;;3.49;80.57;100078.92;1701781;83;21150;-81
2020/12/17 04:18:26;;;;;;;45.35;17.15;;;;;;;3.51;80.54;100082.39;1690569;84;21266;-81
2020/12/17 04:20:53;;;;;;;42.27;17.75;;;;;;;3.49;80.38;100086.64;1698614;83;21301;-81
2020/12/17 04:23:21;;;;;;;44.00;15.55;;;;;;;3.48;80.57;100085.78;1682952;84;21365;-81
2020/12/17 04:25:49;;;;;;;41.18;16.67;;;;;;;3.47;80.60;100084.45;1691982;84;21567;-81
2020/12/17 04:28:16;;;;;;;41.90;16.87;;;;;;;3.47;80.51;100080.60;1696553;83;21330;-81
2020/12/17 04:30:44;;;;;;;44.48;17.17;;;;;;;3.45;80.44;100085.70;1708046;83;21331;-83
2020/12/17 04:33:11;;;;;;;48.50;17.75;;;;;;;3.43;80.53;100075.81;1717947;83;21864;-82
2020/12/17 04:35:39;;;;;;;43.90;16.87;;;;;;;3.43;80.68;100080.09;1717675;83;21315;-80
2020/12/17 04:38:06;;;;;;;46.68;16.67;;;;;;;3.42;80.66;100080.92;1718085;82;21341;-81
2020/12/17 04:40:33;;;;;;;44.73;15.50;;;;;;;3.41;80.71;100079.20;1712689;83;21308;-82
2020/12/17 04:43:02;;;;;;;56.28;18.10;;;;;;;3.39;80.72;100091.59;1720635;82;21309;-82
2020/12/17 04:45:30;;;;;;;45.75;16.82;;;;;;;3.37;80.79;100089.84;1711174;83;21328;-81
2020/12/17 04:48:03;;;;;;;44.60;16.07;;;;;;;3.39;80.67;100093.30;1711251;83;21794;-83
2020/12/17 04:50:32;;;;;;;46.77;16.95;;;;;;;3.39;80.79;100089.02;1718432;83;21276;-82
2020/12/17 04:53:03;;;;;;;44.13;16.02;;;;;;;3.41;80.71;100088.20;1718942;82;21239;-83
2020/12/17 04:55:31;;;;;;;42.73;16.25;;;;;;;3.45;80.79;100089.98;1717672;82;21285;-81
2020/12/17 04:57:59;;;;;;;47.05;14.93;;;;;;;3.46;80.75;100090.03;1715872;83;21368;-81
2020/12/17 05:00:28;;;;;;;47.62;15.75;;;;;;;3.49;80.75;100086.64;1708507;83;21195;-82
2020/12/17 05:02:58;;;;;;;45.85;16.10;;;;;;;3.52;80.79;100096.57;1717012;82;21195;-84
2020/12/17 05:05:26;;;;;;;52.90;19.80;;;;;;;3.54;80.79;100085.00;1680006;83;21337;-83
2020/12/17 05:07:53;;;;;;;44.33;17.52;;;;;;;3.60;80.80;100090.27;1717071;83;21301;-83
2020/12/17 05:10:21;;;;;;;42.35;17.75;;;;;;;3.62;80.77;100082.19;1706617;83;21324;-81
2020/12/17 05:12:48;;;;;;;44.77;17.12;;;;;;;3.65;80.71;100084.80;1710930;83;21337;-81
2020/12/17 05:15:23;;;;;;;50.20;18.52;;;;;;;3.66;80.60;100081.80;1718543;82;21302;-81
2020/12/17 05:17:52;;;;;;;54.67;20.35;;;;;;;3.67;80.53;100085.70;1718882;83;21310;-81
2020/12/17 05:20:19;;;;;;;56.48;18.50;;;;;;;3.68;80.51;100083.98;1716707;83;21179;-82
2020/12/17 05:22:47;;;;;;;56.02;18.42;;;;;;;3.65;80.45;100087.38;1717942;82;21302;-81
2020/12/17 05:25:16;;;;;;;53.75;20.05;;;;;;;3.63;80.45;100074.91;1705212;82;21182;-86
2020/12/17 05:27:44;;;;;;;53.68;21.07;;;;;;;3.61;80.48;100076.58;1713852;83;21289;-82
2020/12/17 05:30:11;;;;;;;62.23;22.13;;;;;;;3.57;80.36;100079.94;1715925;83;21297;-81
2020/12/17 05:32:41;;;;;;;57.03;20.52;;;;;;;3.53;80.65;100088.43;1716318;82;21296;-81
2020/12/17 05:35:14;;;;;;;52.43;20.15;;;;;;;3.50;80.57;100091.81;1717917;83;21295;-81
2020/12/17 05:37:42;;;;;;;47.33;18.27;;;;;;;3.48;80.52;100093.50;1717607;83;21289;-80
2020/12/17 05:40:12;;;;;;;55.12;17.23;;;;;;;3.46;80.63;100092.99;1698033;83;21332;-81
2020/12/17 05:42:41;;;;;;;77.40;26.15;;;;;;;3.43;80.86;100094.23;1712017;82;21167;-84
2020/12/17 05:45:27;;;;;;;53.15;17.12;;;;;;;3.41;80.71;100092.91;1708446;83;21309;-82
2020/12/17 05:48:16;;;;;;;50.20;16.80;;;;;;;3.45;80.95;100098.56;1877003;74;22940;-86
2020/12/17 05:51:01;;;;;;;49.55;17.73;;;;;;;3.36;80.58;100094.12;1853374;77;21499;-83
2020/12/17 05:53:31;;;;;;;45.65;15.20;;;;;;;3.13;81.02;100069.22;1848122;76;21103;-83
2020/12/17 05:56:06;;;;;;;42.90;14.68;;;;;;;3.31;80.86;100088.00;1847112;77;21094;-83
2020/12/17 05:58:45;;;;;;;44.05;15.00;;;;;;;3.29;80.72;100089.67;1844278;77;21312;-84
2020/12/17 06:01:16;;;;;;;39.70;14.35;;;;;;;3.29;80.80;100084.53;1857744;77;21237;-85
2020/12/17 06:03:45;;;;;;;47.70;16.62;;;;;;;3.33;81.09;100089.33;1849056;77;21131;-83
2020/12/17 06:06:13;;;;;;;46.02;16.32;;;;;;;3.36;80.92;100093.23;1836930;77;21123;-83
2020/12/17 06:08:42;;;;;;;42.48;16.73;;;;;;;3.41;80.92;100094.20;1861203;77;21134;-84
2020/12/17 06:11:13;;;;;;;41.08;15.70;;;;;;;3.43;80.80;100105.37;1852310;75;21586;-83
2020/12/17 06:13:42;;;;;;;51.45;18.05;;;;;;;3.43;80.62;100105.80;1846482;75;21557;-84
2020/12/17 06:16:11;;;;;;;43.73;16.25;;;;;;;3.43;80.58;100107.09;1835451;78;21241;-84
2020/12/17 06:18:57;;;;;;;58.28;21.02;;;;;;;3.43;80.56;100104.09;1841613;77;21138;-84
2020/12/17 06:21:26;;;;;;;85.67;26.87;;;;;;;3.44;80.76;100104.95;1840659;77;21591;-83
2020/12/17 06:23:58;;;;;;;65.15;23.32;;;;;;;3.44;80.76;100104.95;1850564;77;21133;-83
2020/12/17 06:26:26;;;;;;;49.40;17.25;;;;;;;3.41;80.88;100098.48;1854967;77;21277;-83
2020/12/17 06:28:54;;;;;;;51.95;18.25;;;;;;;3.37;80.65;100107.83;1849194;77;21256;-84
2020/12/17 06:31:26;;;;;;;82.50;25.92;;;;;;;3.35;80.79;100112.93;1847747;77;21241;-82
2020/12/17 06:34:07;;;;;;;86.45;28.23;;;;;;;3.33;80.93;100109.46;1849553;77;21257;-82
2020/12/17 06:36:42;;;;;;;89.92;26.93;;;;;;;3.33;81.17;100104.32;1825590;77;21242;-83
2020/12/17 06:39:10;;;;;;;68.22;21.97;;;;;;;3.32;81.60;100103.00;1841424;77;21103;-83
2020/12/17 06:41:37;;;;;;;56.48;18.98;;;;;;;3.33;80.93;100100.47;1813933;76;21229;-83
2020/12/17 06:44:28;;;;;;;62.10;19.42;;;;;;;3.32;81.48;100115.45;1827844;75;21255;-83
2020/12/17 06:47:01;;;;;;;94.97;29.55;;;;;;;3.32;81.38;100123.56;1834295;78;21259;-83
2020/12/17 06:49:31;;;;;;;82.88;27.55;;;;;;;3.30;81.28;100122.27;1815721;78;21215;-82
2020/12/17 06:52:07;;;;;;;79.90;25.45;;;;;;;3.33;81.36;100130.02;1809444;78;21298;-84
2020/12/17 06:54:39;;;;;;;81.90;22.87;;;;;;;3.36;81.40;100129.21;1823201;77;21283;-84
2020/12/17 06:57:18;;;;;;;73.20;22.13;;;;;;;3.37;81.58;100129.25;1817197;78;21279;-84
2020/12/17 07:00:08;;;;;;;69.03;20.68;;;;;;;3.42;81.50;100129.76;1818738;78;21429;-83
2020/12/17 07:02:43;;;;;;;64.20;20.55;;;;;;;3.45;81.67;100131.13;1833443;76;22260;-87
2020/12/17 07:05:32;;;;;;;127.70;40.33;;;;;;;3.42;81.43;100125.91;1850604;77;21306;-88
2020/12/17 07:08:00;;;;;;;63.23;19.77;;;;;;;3.48;81.73;100129.88;1846702;76;21265;-84
2020/12/17 07:10:30;;;;;;;52.55;18.35;;;;;;;3.55;82.24;100122.33;1792726;78;21268;-84
2020/12/17 07:12:58;;;;;;;60.70;18.87;;;;;;;3.62;81.61;100126.30;1725340;78;22184;-88
2020/12/17 07:15:37;;;;;;;57.27;18.70;;;;;;;3.65;81.23;100136.23;1712751;82;21443;-83
2020/12/17 07:18:24;;;;;;;59.45;18.95;;;;;;;3.66;81.02;100131.95;1716008;80;21229;-84
2020/12/17 07:21:04;;;;;;;56.28;19.92;;;;;;;3.68;81.00;100128.59;1738019;81;21300;-83
2020/12/17 07:23:41;;;;;;;57.90;20.05;;;;;;;3.62;81.02;100146.48;1805528;77;23020;-86
2020/12/17 07:26:15;;;;;;;55.28;20.35;;;;;;;3.56;80.92;100151.47;1789184;80;21288;-83
2020/12/17 07:28:54;;;;;;;61.65;22.73;;;;;;;3.52;81.19;100147.10;1779383;77;21098;-84
2020/12/17 07:34:22;;;;;;;59.53;21.00;;;;;;;3.48;81.16;100144.02;1798762;77;23007;-82
2020/12/17 07:36:50;;;;;;;51.70;19.50;;;;;;;3.39;81.59;100155.00;1808346;77;21131;-83
2020/12/17 07:39:18;;;;;;;54.55;16.60;;;;;;;3.39;80.81;100150.72;1747068;81;21275;-82
2020/12/17 07:41:46;;;;;;;50.08;17.27;;;;;;;3.35;80.73;100145.06;1743069;82;21744;-83
2020/12/17 07:44:36;;;;;;;59.65;18.60;;;;;;;3.36;82.04;100144.64;1832912;76;23864;-90
2020/12/17 07:47:19;;;;;;;63.78;17.85;;;;;;;3.29;82.07;100146.22;1774927;80;21279;-84
2020/12/17 07:49:55;;;;;;;52.80;18.20;;;;;;;3.40;81.39;100138.72;1798488;79;23702;-86
2020/12/17 07:52:34;;;;;;;53.33;16.48;;;;;;;3.17;82.25;100149.39;1716025;83;21183;-87
2020/12/17 07:55:03;;;;;;;49.70;16.32;;;;;;;3.22;81.92;100148.63;1718060;80;21163;-83
2020/12/17 07:57:30;;;;;;;61.45;19.12;;;;;;;3.27;81.94;100145.75;1798998;77;21255;-82
2020/12/17 07:59:58;;;;;;;58.68;17.85;;;;;;;3.33;82.30;100150.59;1797172;78;21311;-83
2020/12/17 08:02:25;;;;;;;56.77;18.42;;;;;;;3.39;82.04;100149.43;1803460;77;21232;-82
2020/12/17 08:04:53;;;;;;;52.93;17.65;;;;;;;3.44;81.93;100149.52;1790619;78;21164;-82
2020/12/17 08:07:21;;;;;;;64.82;21.93;;;;;;;3.38;81.89;100132.68;1794131;77;21263;-83
2020/12/17 08:10:01;;;;;;;60.92;19.70;;;;;;;3.50;81.84;100156.48;1787765;79;21422;-84
2020/12/17 08:12:29;;;;;;;61.63;20.85;;;;;;;3.55;81.68;100158.32;1771348;78;21251;-83
2020/12/17 08:15:09;;;;;;;61.20;21.10;;;;;;;3.56;81.48;100161.75;1780749;79;21869;-82
2020/12/17 08:17:37;;;;;;;63.75;21.05;;;;;;;3.56;81.20;100170.75;1800595;77;21153;-83
2020/12/17 08:20:04;;;;;;;58.15;19.82;;;;;;;3.50;81.39;100165.09;1725443;82;21286;-84
2020/12/17 08:22:34;;;;;;;61.28;21.07;;;;;;;3.53;81.47;100173.28;1792103;78;21251;-83
2020/12/17 08:25:05;;;;;;;70.55;21.80;;;;;;;3.55;81.54;100171.61;1806144;79;21213;-84
2020/12/17 08:27:33;;;;;;;101.10;32.10;;;;;;;3.58;81.49;100169.08;1809727;79;21229;-83
2020/12/17 08:30:00;;;;;;;82.50;26.75;;;;;;;3.58;81.54;100164.83;1745055;80;21407;-85
2020/12/17 08:32:30;;;;;;;108.85;38.20;;;;;;;3.57;81.36;100167.36;1816320;79;21134;-86
2020/12/17 08:34:58;;;;;;;77.53;27.95;;;;;;;3.57;81.21;100168.22;1783491;79;21159;-83
2020/12/17 08:37:26;;;;;;;70.28;24.50;;;;;;;3.57;81.10;100177.22;1790419;79;21240;-83
2020/12/17 08:40:05;;;;;;;73.05;24.30;;;;;;;3.56;81.28;100172.04;1802917;77;21256;-83
2020/12/17 08:42:37;;;;;;;59.08;19.60;;;;;;;3.58;81.21;100170.36;1796761;77;21271;-83
2020/12/17 08:45:08;;;;;;;61.42;20.70;;;;;;;3.59;80.75;100175.97;1765571;80;21127;-83
2020/12/17 08:47:41;;;;;;;56.20;16.80;;;;;;;3.58;81.26;100172.94;1786560;77;21279;-83
2020/12/17 08:50:10;;;;;;;60.90;19.45;;;;;;;3.59;80.80;100175.55;1801114;79;21267;-83
2020/12/17 08:52:37;;;;;;;55.03;17.05;;;;;;;3.60;81.20;100176.41;1797009;78;21258;-83
2020/12/17 08:55:09;;;;;;;65.45;21.25;;;;;;;3.64;81.25;100174.38;1795974;76;21255;-84
2020/12/17 08:57:38;;;;;;;55.25;17.52;;;;;;;3.69;81.37;100166.31;1709427;81;21279;-87
2020/12/17 09:00:15;;;;;;;54.73;18.60;;;;;;;3.74;81.17;100177.58;1726072;78;21351;-88
2020/12/17 09:02:44;;;;;;;53.68;17.10;;;;;;;3.79;81.08;100175.09;1726305;80;21238;-83
2020/12/17 09:05:13;;;;;;;52.53;17.00;;;;;;;3.86;81.28;100168.34;1725899;81;21092;-84
2020/12/17 09:07:46;;;;;;;52.88;17.25;;;;;;;3.88;80.84;100166.27;1734955;79;21166;-83
2020/12/17 09:10:13;;;;;;;56.75;18.82;;;;;;;3.92;80.82;100160.34;1724644;81;21124;-84
2020/12/17 09:12:44;;;;;;;55.80;20.25;;;;;;;3.98;80.99;100161.74;1732415;80;21217;-84
2020/12/17 09:15:14;;;;;;;51.85;18.40;;;;;;;4.04;80.59;100160.10;1699363;84;21162;-82
2020/12/17 09:17:41;;;;;;;59.05;20.48;;;;;;;4.11;80.25;100160.67;1745042;80;21439;-87
2020/12/17 09:20:21;;;;;;;66.07;22.70;;;;;;;4.14;80.23;100166.75;1802940;78;21187;-89
2020/12/17 09:22:49;;;;;;;100.20;39.40;;;;;;;4.17;79.91;100159.06;1818661;77;21237;-83
2020/12/17 09:25:29;;;;;;;62.13;22.42;;;;;;;4.23;79.73;100167.75;1820071;78;21243;-84
2020/12/17 09:27:56;;;;;;;62.90;20.70;;;;;;;4.24;79.45;100159.17;1816299;78;21263;-84
2020/12/17 09:30:31;;;;;;;57.78;22.37;;;;;;;4.21;79.42;100164.28;1762764;78;21278;-88
2020/12/17 09:33:04;;;;;;;57.78;21.05;;;;;;;4.21;79.55;100159.99;1718273;81;21153;-90
2020/12/17 09:35:35;;;;;;;55.33;19.67;;;;;;;4.15;79.48;100153.02;1725064;81;21193;-89
2020/12/17 09:38:09;;;;;;;64.50;21.52;;;;;;;4.19;79.73;100151.38;1727479;79;21144;-90
2020/12/17 09:43:17;;;;;;;62.17;20.52;;;;;;;4.24;79.54;100143.73;1881299;74;22891;-90
2020/12/17 09:45:48;;;;;;;85.25;26.95;;;;;;;4.14;79.38;100147.88;1848236;76;21218;-84
2020/12/17 09:48:26;;;;;;;71.02;23.90;;;;;;;4.13;79.35;100147.41;1803345;75;21601;-89
2020/12/17 09:51:00;;;;;;;77.67;29.15;;;;;;;4.10;79.43;100141.80;1798692;79;21293;-85
2020/12/17 09:53:31;;;;;;;90.47;26.80;;;;;;;4.05;79.31;100136.98;1815433;79;21220;-85
2020/12/17 09:55:59;;;;;;;87.92;31.57;;;;;;;3.96;79.41;100141.55;1777688;79;21155;-87
2020/12/17 09:58:27;;;;;;;73.47;23.95;;;;;;;3.98;79.59;100145.45;1759704;80;21171;-92
2020/12/17 10:00:59;;;;;;;71.37;22.65;;;;;;;4.00;79.82;100139.91;1762995;80;21184;-84
2020/12/17 10:03:29;;;;;;;69.50;21.02;;;;;;;4.08;80.26;100143.48;1757627;80;21157;-83
2020/12/17 10:05:58;;;;;;;68.22;22.32;;;;;;;4.15;79.97;100142.73;1744251;80;21279;-85
2020/12/17 10:08:30;;;;;;;58.45;19.42;;;;;;;4.23;79.72;100153.59;1761450;80;21326;-83
2020/12/17 10:11:01;;;;;;;;;;;;;;;4.27;79.44;100150.23;1775411;80;21289;-85
2020/12/17 10:13:29;;;;;;;60.08;18.45;;;;;;;4.15;78.68;100150.45;1771909;80;20211;-84
2020/12/17 10:15:58;;;;;;;60.95;22.75;;;;;;;4.24;79.04;100149.77;1762420;80;21283;-83
2020/12/17 10:18:26;;;;;;;79.95;32.05;;;;;;;4.26;79.31;100149.77;1764227;80;21298;-84
2020/12/17 10:20:57;;;;;;;67.65;28.92;;;;;;;4.32;79.69;100144.75;1774584;79;21281;-85
2020/12/17 10:23:26;;;;;;;77.25;30.77;;;;;;;4.35;79.70;100145.65;1693481;78;21182;-86
2020/12/17 10:25:54;;;;;;;69.00;24.92;;;;;;;4.36;79.20;100146.54;1672754;84;21206;-85
2020/12/17 10:28:22;;;;;;;73.42;24.10;;;;;;;4.35;79.31;100143.07;1726995;81;21168;-85
2020/12/17 10:30:50;;;;;;;68.45;23.12;;;;;;;4.36;79.29;100143.53;1720848;82;21638;-86
2020/12/17 10:33:18;;;;;;;68.80;23.15;;;;;;;4.32;78.80;100140.89;1727948;82;21164;-89
2020/12/17 10:35:47;;;;;;;59.95;22.00;;;;;;;4.31;79.01;100139.14;1721145;82;21157;-87
2020/12/17 10:38:16;;;;;;;68.42;22.70;;;;;;;4.34;79.14;100142.64;1732355;80;21161;-89
2020/12/17 10:40:43;;;;;;;65.97;23.40;;;;;;;4.30;78.77;100136.14;1716881;82;21624;-85
2020/12/17 10:43:11;;;;;;;89.45;29.02;;;;;;;4.30;79.17;100136.14;1748620;79;21128;-90
2020/12/17 10:45:38;;;;;;;86.12;28.12;;;;;;;4.28;79.21;100135.25;1766327;79;21144;-89
2020/12/17 10:48:05;;;;;;;70.57;25.60;;;;;;;4.30;79.20;100134.85;1762475;79;22259;-89
2020/12/17 10:50:32;;;;;;;60.73;23.00;;;;;;;4.26;78.97;100136.89;1757170;79;21648;-89
2020/12/17 10:53:00;;;;;;;65.20;22.52;;;;;;;4.19;79.33;100130.78;1761017;79;21179;-89
2020/12/17 10:55:27;;;;;;;65.80;22.37;;;;;;;4.14;79.60;100129.44;1761762;79;21158;-89
2020/12/17 10:57:54;;;;;;;70.05;25.62;;;;;;;4.13;79.47;100131.97;1765329;79;21161;-87
2020/12/17 11:00:22;;;;;;;72.75;23.77;;;;;;;4.16;79.84;100129.47;1766632;79;21136;-88
2020/12/17 11:02:49;;;;;;;58.35;22.37;;;;;;;4.14;79.48;100123.42;1758672;79;21135;-87
2020/12/17 11:05:16;;;;;;;64.50;20.12;;;;;;;4.11;79.43;100120.35;1763080;79;21136;-89
2020/12/17 11:07:44;;;;;;;52.90;18.55;;;;;;;4.08;79.79;100120.32;1761192;79;21486;-89
2020/12/17 11:10:11;;;;;;;60.83;18.65;;;;;;;4.10;79.32;100113.89;1728432;81;21168;-86
2020/12/17 11:12:39;;;;;;;64.25;19.40;;;;;;;4.12;79.55;100115.67;1760571;79;21435;-85
2020/12/17 11:15:06;;;;;;;61.00;18.80;;;;;;;4.12;79.61;100110.95;1760867;79;21176;-87
2020/12/17 11:17:34;;;;;;;60.33;19.67;;;;;;;4.10;79.63;100112.20;1760434;79;21128;-88
2020/12/17 11:20:03;;;;;;;62.43;18.45;;;;;;;4.15;79.55;100110.55;1755815;79;21183;-87
2020/12/17 11:22:31;;;;;;;67.25;21.68;;;;;;;4.21;79.96;100111.09;1777366;79;21228;-85
2020/12/17 11:24:59;;;;;;;97.85;26.68;;;;;;;4.25;79.69;100114.16;1758157;81;21311;-84
2020/12/17 11:27:28;;;;;;;62.80;21.12;;;;;;;4.29;80.14;100102.21;1769318;79;21141;-85
2020/12/17 11:29:55;;;;;;;61.13;22.07;;;;;;;4.26;79.47;100099.17;1764689;80;21231;-88
2020/12/17 11:32:23;;;;;;;70.20;21.85;;;;;;;4.28;79.42;100100.49;1655856;85;21168;-88
2020/12/17 11:34:51;;;;;;;70.35;22.70;;;;;;;4.33;79.49;100098.84;1653982;85;21183;-87